createdAt,value
2022-09-07T00:01:18.053Z,101282.50
2022-09-07T00:03:45.689Z,101273.38
2022-09-07T00:06:15.054Z,101273.84
2022-09-07T00:08:43.747Z,101278.66
2022-09-07T00:11:14.585Z,101272.72
2022-09-07T00:13:44.705Z,101276.47
2022-09-07T00:16:16.169Z,101269.94
2022-09-07T00:18:46.334Z,101275.31
2022-09-07T00:21:17.966Z,101276.88
2022-09-07T00:23:47.569Z,101281.19
2022-09-07T00:26:18.866Z,101280.69
2022-09-07T00:28:46.995Z,101271.59
2022-09-07T00:31:17.739Z,101272.41
2022-09-07T00:33:47.964Z,101264.09
2022-09-07T00:36:18.065Z,101261.97
2022-09-07T00:38:45.517Z,101254.16
2022-09-07T00:41:13.404Z,101254.72
2022-09-07T00:43:44.906Z,101258.25
2022-09-07T00:46:16.288Z,101249.09
2022-09-07T00:48:53.371Z,101251.22
2022-09-07T00:51:29.366Z,101260.34
2022-09-07T00:54:02.951Z,101262.44
2022-09-07T00:56:36.342Z,101260.84
2022-09-07T00:59:04.519Z,101255.22
2022-09-07T01:01:34.285Z,101242.59
2022-09-07T01:04:03.215Z,101239.91
2022-09-07T01:06:36.759Z,101242.59
2022-09-07T01:09:08.040Z,101244.25
2022-09-07T01:11:36.948Z,101242.59
2022-09-07T01:14:08.006Z,101237.22
2022-09-07T01:17:03.505Z,101237.72
2022-09-07T01:20:03.882Z,101242.50
2022-09-07T01:23:02.159Z,101245.69
2022-09-07T01:25:43.006Z,101240.31
2022-09-07T01:28:19.729Z,101236.56
2022-09-07T01:30:56.849Z,101240.91
2022-09-07T01:33:49.549Z,101235.44
2022-09-07T01:36:26.715Z,101231.22
2022-09-07T01:38:59.033Z,101232.84
2022-09-07T01:41:35.878Z,101236.56
2022-09-07T01:44:12.598Z,101238.22
2022-09-07T01:46:46.362Z,101234.47
2022-09-07T01:49:21.750Z,101233.63
2022-09-07T01:51:55.774Z,101232.84
2022-09-07T01:54:32.336Z,101225.84
2022-09-07T01:57:06.566Z,101211.38
2022-09-07T01:59:43.248Z,101225.56
2022-09-07T02:02:16.706Z,101224.78
2022-09-07T02:04:52.965Z,101224.19
2022-09-07T02:07:27.986Z,101217.44
2022-09-07T02:10:02.129Z,101220.94
2022-09-07T02:12:38.934Z,101219.34
2022-09-07T02:15:15.483Z,101212.88
2022-09-07T02:17:49.620Z,101201.09
2022-09-07T02:20:24.346Z,101204.84
2022-09-07T02:23:05.400Z,101191.97
2022-09-07T02:25:41.026Z,101189.88
2022-09-07T02:28:14.662Z,101187.75
2022-09-07T02:30:44.411Z,101190.44
2022-09-07T02:33:12.032Z,101185.06
2022-09-07T02:35:39.622Z,101184.56
2022-09-07T02:38:08.319Z,101179.78
2022-09-07T02:40:36.296Z,101176.56
2022-09-07T02:43:08.615Z,101178.78
2022-09-07T02:45:59.773Z,101177.94
2022-09-07T02:48:42.047Z,101179.34
2022-09-07T02:51:18.286Z,101176.97
2022-09-07T02:54:27.317Z,101169.66
2022-09-07T02:57:10.455Z,101186.91
2022-09-07T02:59:56.313Z,101218.81
2022-09-07T03:02:35.115Z,101261.88
2022-09-07T03:05:12.968Z,101259.09
2022-09-07T03:07:51.420Z,101277.25
2022-09-07T03:10:19.441Z,101318.63
2022-09-07T03:12:49.989Z,101290.13
2022-09-07T03:15:21.512Z,101293.69
2022-09-07T03:17:50.827Z,101288.88
2022-09-07T03:20:19.694Z,101267.97
2022-09-07T03:22:50.339Z,101262.59
2022-09-07T03:25:19.042Z,101251.63
2022-09-07T03:27:46.467Z,101251.94
2022-09-07T03:30:14.825Z,101253.34
2022-09-07T03:32:42.441Z,101246.66
2022-09-07T03:35:14.321Z,101247.22
2022-09-07T03:37:42.039Z,101245.94
2022-09-07T03:40:12.184Z,101238.22
2022-09-07T03:42:39.990Z,101239.34
2022-09-07T03:45:09.665Z,101239.34
2022-09-07T03:47:38.135Z,101238.88
2022-09-07T03:50:07.322Z,101225.50
2022-09-07T03:52:37.154Z,101212.66
2022-09-07T03:55:05.680Z,101211.09
2022-09-07T03:57:33.067Z,101208.97
2022-09-07T04:00:00.457Z,101203.50
2022-09-07T04:02:27.969Z,101202.47
2022-09-07T04:04:55.322Z,101203.03
2022-09-07T04:07:22.738Z,101206.19
2022-09-07T04:09:51.489Z,101209.38
2022-09-07T04:12:18.899Z,101213.13
2022-09-07T04:14:46.444Z,101208.81
2022-09-07T04:17:13.802Z,101219.00
2022-09-07T04:19:41.250Z,101224.13
2022-09-07T04:22:08.604Z,101224.94
2022-09-07T04:24:35.973Z,101210.44
2022-09-07T04:27:04.824Z,101211.56
2022-09-07T04:29:32.250Z,101199.28
2022-09-07T04:31:59.654Z,101205.78
2022-09-07T04:34:27.210Z,101201.53
2022-09-07T04:36:54.498Z,101205.88
2022-09-07T04:39:21.839Z,101204.81
2022-09-07T04:41:49.169Z,101211.34
2022-09-07T04:44:17.933Z,101209.22
2022-09-07T04:46:45.379Z,101217.03
2022-09-07T04:49:12.802Z,101216.78
2022-09-07T04:51:42.899Z,101219.72
2022-09-07T04:54:11.533Z,101222.09
2022-09-07T04:56:39.438Z,101220.94
2022-09-07T04:59:06.915Z,101224.34
2022-09-07T05:01:35.801Z,101220.28
2022-09-07T05:04:04.803Z,101219.72
2022-09-07T05:06:32.614Z,101211.66
2022-09-07T05:09:00.764Z,101220.78
2022-09-07T05:11:29.911Z,101239.81
2022-09-07T05:13:58.106Z,101261.00
2022-09-07T05:16:27.111Z,101259.06
2022-09-07T05:18:58.462Z,101255.47
2022-09-07T05:21:28.916Z,101251.13
2022-09-07T05:23:58.813Z,101254.34
2022-09-07T05:26:28.909Z,101254.00
2022-09-07T05:31:43.853Z,101252.13
2022-09-07T05:36:55.715Z,101248.13
2022-09-07T05:39:23.194Z,101244.34
2022-09-07T05:41:50.535Z,101232.84
2022-09-07T05:47:05.764Z,101226.47
2022-09-07T05:49:34.608Z,101213.13
2022-09-07T05:52:02.264Z,101215.91
2022-09-07T05:54:29.561Z,101219.97
2022-09-07T05:56:56.919Z,101226.66
2022-09-07T05:59:24.258Z,101220.13
2022-09-07T06:01:51.727Z,101212.56
2022-09-07T06:04:19.611Z,101216.31
2022-09-07T06:07:11.057Z,101206.38
2022-09-07T06:12:24.067Z,101200.63
2022-09-07T06:14:51.426Z,101201.50
2022-09-07T06:17:19.759Z,101203.22
2022-09-07T06:19:47.137Z,101209.72
2022-09-07T06:22:16.350Z,101210.75
2022-09-07T06:24:43.752Z,101212.31
2022-09-07T06:27:11.413Z,101190.75
2022-09-07T06:29:38.808Z,101182.69
2022-09-07T06:34:53.858Z,101204.69
2022-09-07T06:37:22.672Z,101215.91
2022-09-07T06:39:50.119Z,101200.84
2022-09-07T06:42:17.567Z,101184.00
2022-09-07T06:44:44.955Z,101191.31
2022-09-07T06:47:12.440Z,101181.72
2022-09-07T06:49:39.874Z,101186.59
2022-09-07T06:52:07.285Z,101185.53
2022-09-07T06:57:23.559Z,101189.69
2022-09-07T06:59:50.954Z,101184.63
2022-09-07T07:02:21.656Z,101187.41
2022-09-07T07:04:50.190Z,101184.78
2022-09-07T07:07:17.642Z,101195.34
2022-09-07T07:09:46.422Z,101194.72
2022-09-07T07:12:13.746Z,101200.50
2022-09-07T07:14:44.618Z,101201.94
2022-09-07T07:17:12.666Z,101196.13
2022-09-07T07:19:40.074Z,101199.19
2022-09-07T07:22:23.983Z,101198.53
2022-09-07T07:24:56.187Z,101196.44
2022-09-07T07:27:23.718Z,101200.88
2022-09-07T07:29:52.445Z,101202.13
2022-09-07T07:32:20.062Z,101210.41
2022-09-07T07:34:47.439Z,101204.19
2022-09-07T07:37:16.152Z,101206.25
2022-09-07T07:42:33.934Z,101209.72
2022-09-07T07:47:51.331Z,101206.81
2022-09-07T07:50:34.943Z,101188.00
2022-09-07T07:55:50.693Z,101200.44
2022-09-07T07:58:19.909Z,101201.59
2022-09-07T08:00:55.863Z,101208.44
2022-09-07T08:03:25.319Z,101215.78
2022-09-07T08:05:53.306Z,101216.94
2022-09-07T08:08:23.340Z,101215.91
2022-09-07T08:10:51.216Z,101216.53
2022-09-07T08:13:21.420Z,101225.78
2022-09-07T08:15:49.000Z,101228.53
2022-09-07T08:18:17.609Z,101230.72
2022-09-07T08:20:44.924Z,101237.72
2022-09-07T08:23:12.197Z,101229.53
2022-09-07T08:25:48.495Z,101239.19
2022-09-07T08:28:15.762Z,101234.03
2022-09-07T08:30:44.452Z,101231.16
2022-09-07T08:33:11.641Z,101233.69
2022-09-07T08:35:39.000Z,101234.91
2022-09-07T08:38:06.427Z,101231.81
2022-09-07T08:40:38.191Z,101233.44
2022-09-07T08:43:19.597Z,101232.31
2022-09-07T08:45:54.599Z,101242.38
2022-09-07T08:48:32.187Z,101235.09
2022-09-07T08:51:10.321Z,101240.06
2022-09-07T08:53:46.599Z,101236.59
2022-09-07T08:56:22.287Z,101231.63
2022-09-07T08:58:53.209Z,101232.97
2022-09-07T09:01:32.287Z,101229.94
2022-09-07T09:04:17.223Z,101229.31
2022-09-07T09:07:01.356Z,101231.50
2022-09-07T09:09:47.024Z,101244.06
2022-09-07T09:12:27.715Z,101244.81
2022-09-07T09:15:16.201Z,101236.81
2022-09-07T09:17:56.847Z,101234.41
2022-09-07T09:20:31.598Z,101234.88
2022-09-07T09:23:12.351Z,101224.03
2022-09-07T09:25:51.076Z,101229.28
2022-09-07T09:28:18.751Z,101233.47
2022-09-07T09:30:47.905Z,101224.00
2022-09-07T09:33:20.598Z,101217.13
2022-09-07T09:35:50.094Z,101220.03
2022-09-07T09:38:35.600Z,101215.88
2022-09-07T09:41:08.769Z,101218.53
2022-09-07T09:43:43.491Z,101215.94
2022-09-07T09:46:23.195Z,101220.69
2022-09-07T09:48:56.874Z,101214.59
2022-09-07T09:54:25.986Z,101213.91
2022-09-07T09:56:53.562Z,101214.94
2022-09-07T10:05:33.386Z,101219.59
2022-09-07T10:08:01.441Z,101220.78
2022-09-07T10:10:30.175Z,101218.75
2022-09-07T10:12:58.101Z,101219.22
2022-09-07T10:15:39.688Z,101201.88
2022-09-07T10:18:18.751Z,101208.50
2022-09-07T10:20:48.091Z,101205.22
2022-09-07T10:23:23.402Z,101201.81
2022-09-07T10:25:51.175Z,101196.47
2022-09-07T10:28:21.728Z,101193.88
2022-09-07T10:31:15.278Z,101196.31
2022-09-07T10:36:53.609Z,101190.66
2022-09-07T10:39:27.804Z,101200.81
2022-09-07T10:42:06.104Z,101191.59
2022-09-07T10:44:55.444Z,101186.66
2022-09-07T10:47:42.726Z,101187.38
2022-09-07T10:50:24.978Z,101174.16
2022-09-07T10:53:39.601Z,101177.13
2022-09-07T10:56:11.512Z,101175.00
2022-09-07T10:59:03.489Z,101174.03
2022-09-07T11:01:48.704Z,101175.53
2022-09-07T11:04:41.106Z,101184.63
2022-09-07T11:07:29.143Z,101170.41
2022-09-07T11:10:11.954Z,101164.78
2022-09-07T11:12:44.424Z,101159.66
2022-09-07T11:15:24.481Z,101165.22
2022-09-07T11:17:56.938Z,101168.31
2022-09-07T11:20:31.441Z,101162.84
2022-09-07T11:23:12.769Z,101151.88
2022-09-07T11:25:52.182Z,101154.25
2022-09-07T11:28:27.520Z,101156.34
2022-09-07T11:31:00.728Z,101161.19
2022-09-07T11:33:35.146Z,101153.63
2022-09-07T11:36:12.733Z,101158.31
2022-09-07T11:38:48.261Z,101151.38
2022-09-07T11:41:28.887Z,101153.47
2022-09-07T11:44:06.669Z,101158.78
2022-09-07T11:46:42.019Z,101158.13
2022-09-07T11:49:21.228Z,101155.44
2022-09-07T11:51:56.301Z,101160.16
2022-09-07T11:54:38.847Z,101160.38
2022-09-07T11:57:37.403Z,101148.59
2022-09-07T12:00:13.813Z,101142.66
2022-09-07T12:03:11.620Z,101149.31
2022-09-07T12:06:11.259Z,101152.06
2022-09-07T12:09:06.339Z,101148.56
2022-09-07T12:12:07.139Z,101152.72
2022-09-07T12:14:53.724Z,101150.06
2022-09-07T12:17:43.858Z,101146.72
2022-09-07T12:20:15.180Z,101139.88
2022-09-07T12:23:05.266Z,101150.75
2022-09-07T12:25:34.816Z,101142.59
2022-09-07T12:28:02.659Z,101139.06
2022-09-07T12:30:56.498Z,101145.72
2022-09-07T12:33:31.784Z,101152.66
2022-09-07T12:36:00.903Z,101140.09
2022-09-07T12:39:26.793Z,101138.66
2022-09-07T12:42:37.512Z,101134.94
2022-09-07T12:45:49.259Z,101144.50
2022-09-07T12:48:46.788Z,101132.63
2022-09-07T12:54:28.493Z,101137.47
2022-09-07T13:00:11.861Z,101144.47
2022-09-07T13:03:51.130Z,101138.97
2022-09-07T13:09:34.960Z,101131.13
2022-09-07T13:15:37.999Z,101132.41
2022-09-07T13:18:06.506Z,101133.72
2022-09-07T13:20:39.155Z,101135.72
2022-09-07T13:23:25.104Z,101135.44
2022-09-07T13:25:59.996Z,101142.56
2022-09-07T13:28:52.546Z,101139.31
2022-09-07T13:31:58.597Z,101146.44
2022-09-07T13:34:50.099Z,101147.81
2022-09-07T13:37:22.966Z,101149.22
2022-09-07T13:39:55.584Z,101147.03
2022-09-07T13:42:28.758Z,101142.63
2022-09-07T13:44:58.281Z,101141.00
2022-09-07T13:47:45.279Z,101144.69
2022-09-07T13:50:29.051Z,101141.75
2022-09-07T13:53:31.022Z,101143.22
2022-09-07T13:56:15.696Z,101138.09
2022-09-07T13:58:47.785Z,101140.88
2022-09-07T14:01:20.247Z,101136.59
2022-09-07T14:03:53.682Z,101140.22
2022-09-07T14:06:34.265Z,101137.03
2022-09-07T14:09:06.144Z,101132.47
2022-09-07T14:11:46.282Z,101136.63
2022-09-07T14:14:20.207Z,101141.28
2022-09-07T14:16:54.273Z,101142.88
2022-09-07T14:19:25.667Z,101138.47
2022-09-07T14:22:03.049Z,101133.53
2022-09-07T14:24:35.175Z,101133.91
2022-09-07T14:27:06.586Z,101135.44
2022-09-07T14:29:37.024Z,101125.91
2022-09-07T14:32:10.741Z,101124.53
2022-09-07T14:34:39.471Z,101120.16
2022-09-07T14:37:13.280Z,101126.41
2022-09-07T14:39:44.851Z,101129.66
2022-09-07T14:42:19.735Z,101125.03
2022-09-07T14:44:47.480Z,101132.66
2022-09-07T14:47:29.406Z,101118.03
2022-09-07T14:50:05.773Z,101119.09
2022-09-07T14:52:43.023Z,101125.03
2022-09-07T14:55:29.566Z,101123.72
2022-09-07T14:58:25.466Z,101125.59
2022-09-07T15:04:01.276Z,101122.31
2022-09-07T15:09:30.898Z,101121.81
2022-09-07T15:12:17.795Z,101120.47
2022-09-07T15:14:47.987Z,101117.25
2022-09-07T15:20:40.224Z,101116.22
2022-09-07T15:23:12.071Z,101113.34
2022-09-07T15:25:40.849Z,101111.94
2022-09-07T15:34:10.108Z,101116.03
2022-09-07T15:36:40.787Z,101112.09
2022-09-07T15:39:19.040Z,101108.50
2022-09-07T15:41:47.725Z,101113.63
2022-09-07T15:44:16.300Z,101116.66
2022-09-07T15:47:42.374Z,101108.28
2022-09-07T15:49:33.803Z,101116.47
2022-09-07T15:52:08.442Z,101114.66
2022-09-07T15:54:39.435Z,101114.44
2022-09-07T15:59:54.826Z,101116.00
2022-09-07T16:05:11.107Z,101114.75
2022-09-07T16:10:27.357Z,101118.03
2022-09-07T16:13:09.694Z,101110.50
2022-09-07T16:15:45.693Z,101113.88
2022-09-07T16:18:17.508Z,101111.72
2022-09-07T16:20:45.936Z,101115.56
2022-09-07T16:23:16.488Z,101114.28
2022-09-07T16:25:56.382Z,101103.28
2022-09-07T16:28:24.190Z,101101.66
2022-09-07T16:30:51.519Z,101104.94
2022-09-07T16:33:20.275Z,101097.41
2022-09-07T16:35:59.617Z,101105.88
2022-09-07T16:38:46.123Z,101105.16
2022-09-07T16:41:15.386Z,101096.84
2022-09-07T16:43:43.606Z,101099.84
2022-09-07T16:46:14.819Z,101096.97
2022-09-07T16:48:44.283Z,101085.91
2022-09-07T16:51:15.598Z,101096.22
2022-09-07T16:53:43.577Z,101093.72
2022-09-07T16:56:13.554Z,101092.34
2022-09-07T16:58:43.592Z,101089.38
2022-09-07T17:01:13.035Z,101097.19
2022-09-07T17:03:41.344Z,101095.56
2022-09-07T17:06:13.373Z,101094.50
2022-09-07T17:08:42.361Z,101094.50
2022-09-07T17:11:12.665Z,101099.91
2022-09-07T17:13:42.081Z,101090.16
2022-09-07T17:16:12.730Z,101090.16
2022-09-07T17:21:33.254Z,101088.31
2022-09-07T17:24:01.710Z,101084.88
2022-09-07T17:26:32.451Z,101086.50
2022-09-07T17:29:00.998Z,101090.06
2022-09-07T17:34:19.941Z,101089.66
2022-09-07T17:36:48.777Z,101091.66
2022-09-07T17:39:18.139Z,101100.66
2022-09-07T17:41:46.985Z,101098.25
2022-09-07T17:44:14.489Z,101091.78
2022-09-07T17:46:41.844Z,101098.38
2022-09-07T17:49:13.910Z,101098.41
2022-09-07T17:51:41.461Z,101097.94
2022-09-07T17:54:15.660Z,101100.16
2022-09-07T17:56:44.074Z,101103.41
2022-09-07T18:01:59.202Z,101113.31
2022-09-07T18:04:27.306Z,101114.94
2022-09-07T18:06:55.661Z,101118.22
2022-09-07T18:09:24.466Z,101119.09
2022-09-07T18:11:51.726Z,101124.25
2022-09-07T18:14:19.689Z,101125.59
2022-09-07T18:16:49.943Z,101124.28
2022-09-07T18:19:18.874Z,101126.47
2022-09-07T18:21:48.024Z,101127.81
2022-09-07T18:24:19.685Z,101120.00
2022-09-07T18:26:52.303Z,101116.50
2022-09-07T18:29:32.310Z,101104.63
2022-09-07T18:32:04.777Z,101109.22
2022-09-07T18:34:35.911Z,101109.84
2022-09-07T18:37:03.589Z,101117.47
2022-09-07T18:39:37.628Z,101122.91
2022-09-07T18:42:07.770Z,101127.22
2022-09-07T18:47:29.111Z,101138.88
2022-09-07T18:49:58.032Z,101133.75
2022-09-07T18:55:12.997Z,101130.53
2022-09-07T18:57:41.971Z,101132.94
2022-09-07T19:00:12.394Z,101134.31
2022-09-07T19:02:39.730Z,101131.06
2022-09-07T19:07:55.929Z,101121.94
2022-09-07T19:10:23.215Z,101131.13
2022-09-07T19:12:51.839Z,101137.09
2022-09-07T19:15:20.529Z,101127.09
2022-09-07T19:17:47.822Z,101127.91
2022-09-07T19:20:15.361Z,101124.13
2022-09-07T19:22:42.946Z,101122.25
2022-09-07T19:25:10.515Z,101119.28
2022-09-07T19:27:37.892Z,101126.03
2022-09-07T19:30:08.110Z,101126.88
2022-09-07T19:32:35.300Z,101128.50
2022-09-07T19:35:02.627Z,101131.50
2022-09-07T19:37:32.244Z,101129.03
2022-09-07T19:39:59.884Z,101128.25
2022-09-07T19:42:27.261Z,101129.88
2022-09-07T19:44:54.933Z,101127.44
2022-09-07T19:47:23.931Z,101133.41
2022-09-07T19:49:52.276Z,101130.69
2022-09-07T19:52:19.777Z,101123.66
2022-09-07T19:54:47.012Z,101122.03
2022-09-07T19:57:14.219Z,101129.03
2022-09-07T19:59:41.498Z,101119.31
2022-09-07T20:02:09.916Z,101121.75
2022-09-07T20:04:38.526Z,101116.88
2022-09-07T20:07:06.592Z,101114.97
2022-09-07T20:09:33.854Z,101115.50
2022-09-07T20:12:02.630Z,101123.63
2022-09-07T20:14:29.844Z,101118.81
2022-09-07T20:16:57.299Z,101126.91
2022-09-07T20:19:24.707Z,101122.06
2022-09-07T20:21:55.754Z,101116.94
2022-09-07T20:24:23.354Z,101108.56
2022-09-07T20:26:50.582Z,101114.50
2022-09-07T20:29:33.268Z,101118.84
2022-09-07T20:32:01.814Z,101115.59
2022-09-07T20:34:29.969Z,101108.31
2022-09-07T20:36:58.694Z,101098.56
2022-09-07T20:39:26.049Z,101100.47
2022-09-07T20:41:53.636Z,101098.84
2022-09-07T20:44:20.873Z,101092.63
2022-09-07T20:46:48.208Z,101091.81
2022-09-07T20:49:15.626Z,101098.84
2022-09-07T20:51:42.947Z,101091.81
2022-09-07T20:54:11.757Z,101095.88
2022-09-07T20:56:39.073Z,101088.06
2022-09-07T20:59:06.840Z,101084.81
2022-09-07T21:01:35.171Z,101091.28
2022-09-07T21:04:04.037Z,101085.34
2022-09-07T21:06:32.874Z,101085.31
2022-09-07T21:09:01.238Z,101090.72
2022-09-07T21:11:32.941Z,101090.19
2022-09-07T21:14:06.054Z,101091.31
2022-09-07T21:16:34.372Z,101086.97
2022-09-07T21:19:04.158Z,101091.03
2022-09-07T21:21:38.908Z,101092.63
2022-09-07T21:24:14.425Z,101088.59
2022-09-07T21:26:43.032Z,101088.03
2022-09-07T21:29:17.052Z,101089.66
2022-09-07T21:31:44.932Z,101090.16
2022-09-07T21:34:12.593Z,101092.31
2022-09-07T21:36:40.128Z,101087.22
2022-09-07T21:39:10.384Z,101085.31
2022-09-07T21:41:39.872Z,101083.16
2022-09-07T21:44:11.663Z,101074.53
2022-09-07T21:46:38.958Z,101072.91
2022-09-07T21:49:06.700Z,101079.91
2022-09-07T21:51:34.073Z,101089.88
2022-09-07T21:54:01.867Z,101081.50
2022-09-07T21:56:31.235Z,101083.38
2022-09-07T21:59:01.554Z,101077.72
2022-09-07T22:01:31.758Z,101076.59
2022-09-07T22:04:01.952Z,101072.25
2022-09-07T22:06:30.991Z,101073.88
2022-09-07T22:08:59.292Z,101076.56
2022-09-07T22:11:28.961Z,101072.16
2022-09-07T22:13:59.007Z,101066.50
2022-09-07T22:16:26.539Z,101073.25
2022-09-07T22:18:55.519Z,101068.38
2022-09-07T22:21:25.041Z,101060.25
2022-09-07T22:23:56.295Z,101062.69
2022-09-07T22:26:26.101Z,101065.91
2022-09-07T22:28:53.723Z,101060.78
2022-09-07T22:31:24.382Z,101056.72
2022-09-07T22:33:56.220Z,101059.66
2022-09-07T22:36:26.069Z,101053.72
2022-09-07T22:38:55.709Z,101056.97
2022-09-07T22:41:26.426Z,101059.09
2022-09-07T22:43:54.148Z,101057.50
2022-09-07T22:46:24.160Z,101061.25
2022-09-07T22:48:55.353Z,101058.00
2022-09-07T22:51:26.711Z,101054.75
2022-09-07T22:53:55.042Z,101056.91
2022-09-07T22:56:26.580Z,101052.84
2022-09-07T22:58:56.585Z,101048.00
2022-09-07T23:01:26.212Z,101046.91
2022-09-07T23:03:55.368Z,101041.47
2022-09-07T23:06:27.717Z,101047.66
2022-09-07T23:08:58.019Z,101036.56
2022-09-07T23:11:25.826Z,101031.19
2022-09-07T23:13:54.566Z,101034.13
2022-09-07T23:16:23.141Z,101028.72
2022-09-07T23:18:50.708Z,101026.63
2022-09-07T23:21:20.053Z,101025.00
2022-09-07T23:23:51.322Z,101030.88
2022-09-07T23:26:19.354Z,101026.00
2022-09-07T23:28:50.857Z,101024.09
2022-09-07T23:31:18.208Z,101021.09
2022-09-07T23:33:45.529Z,101022.97
2022-09-07T23:36:12.951Z,101010.84
2022-09-07T23:38:41.660Z,101002.75
2022-09-07T23:41:08.928Z,100994.19
2022-09-07T23:43:36.681Z,100993.63
2022-09-07T23:46:04.045Z,100988.25
2022-09-07T23:48:31.511Z,100988.25
2022-09-07T23:50:58.790Z,100994.19
2022-09-07T23:53:26.083Z,101004.38
2022-09-07T23:55:54.623Z,100990.88
2022-09-07T23:58:23.114Z,100994.56
